Oxdrift, Canada
Current Conditions -  °F | °C
As of 12:00 AM on Thursday 29 Jan 2015 (Local Time) from CYHD Reporting Station
Overcast Overcast  
Wind Chill:   Ceiling: 1000
Heat Index: 19°   Visibility: 9mi
Dew Point: 18°   Wind: 9mph
Humidity: 93%   Direction: 360°N
Pressure: 29.87"   Gusts: 17mph
Location:  49.82°N, 92.98°W
Report Text: CYHD 290600Z AUTO 36008G15KT 310V030 9SM OVC010 M07/M08 A2987 RMK SLP142
Loading
Personal Weather Stations






























Interactive Weather Map New forecast layout! Learn more

10-Day Weather Forecast

Advertisements
Track Severe Weather on mobile